sensor_id;sensor_type;location;lat;lon;timestamp;pressure;altitude;pressure_sealevel;temperature;humidity
71772;BME280;59606;52.138;5.424;2022-09-09T00:01:34;100867.88;;;15.57;86.00
71772;BME280;59606;52.138;5.424;2022-09-09T00:04:10;100866.22;;;15.56;85.96
71772;BME280;59606;52.138;5.424;2022-09-09T00:06:55;100853.09;;;15.56;86.53
71772;BME280;59606;52.138;5.424;2022-09-09T00:09:28;100855.00;;;15.54;86.44
71772;BME280;59606;52.138;5.424;2022-09-09T00:12:02;100847.09;;;15.54;86.52
71772;BME280;59606;52.138;5.424;2022-09-09T00:14:51;100848.78;;;15.55;86.31
71772;BME280;59606;52.138;5.424;2022-09-09T00:17:44;100842.69;;;15.54;86.48
71772;BME280;59606;52.138;5.424;2022-09-09T00:20:21;100835.78;;;15.53;86.41
71772;BME280;59606;52.138;5.424;2022-09-09T00:22:57;100836.97;;;15.49;86.68
71772;BME280;59606;52.138;5.424;2022-09-09T00:25:34;100835.16;;;15.50;87.19
71772;BME280;59606;52.138;5.424;2022-09-09T00:28:13;100846.38;;;15.52;86.92
71772;BME280;59606;52.138;5.424;2022-09-09T00:30:43;100843.06;;;15.50;87.03
71772;BME280;59606;52.138;5.424;2022-09-09T00:33:12;100844.94;;;15.48;86.96
71772;BME280;59606;52.138;5.424;2022-09-09T00:35:45;100848.75;;;15.44;87.12
71772;BME280;59606;52.138;5.424;2022-09-09T00:38:26;100850.88;;;15.39;86.89
71772;BME280;59606;52.138;5.424;2022-09-09T00:49:54;100829.50;;;15.32;87.15
71772;BME280;59606;52.138;5.424;2022-09-09T00:55:16;100839.97;;;15.21;87.23
71772;BME280;59606;52.138;5.424;2022-09-09T00:57:45;100836.88;;;15.16;87.26
71772;BME280;59606;52.138;5.424;2022-09-09T01:00:24;100844.97;;;15.13;87.51
71772;BME280;59606;52.138;5.424;2022-09-09T01:03:29;100846.03;;;15.10;87.54
71772;BME280;59606;52.138;5.424;2022-09-09T01:06:16;100846.03;;;15.10;87.81
71772;BME280;59606;52.138;5.424;2022-09-09T01:17:00;100850.94;;;14.91;87.95
71772;BME280;59606;52.138;5.424;2022-09-09T01:25:05;100836.47;;;14.85;88.46
71772;BME280;59606;52.138;5.424;2022-09-09T01:27:37;100835.16;;;14.79;88.31
71772;BME280;59606;52.138;5.424;2022-09-09T01:30:14;100831.06;;;14.75;88.75
71772;BME280;59606;52.138;5.424;2022-09-09T01:32:50;100833.66;;;14.75;88.67
71772;BME280;59606;52.138;5.424;2022-09-09T01:35:25;100832.00;;;14.74;88.66
71772;BME280;59606;52.138;5.424;2022-09-09T01:37:56;100825.19;;;14.72;88.48
71772;BME280;59606;52.138;5.424;2022-09-09T01:40:30;100825.31;;;14.70;88.41
71772;BME280;59606;52.138;5.424;2022-09-09T01:42:57;100826.50;;;14.66;88.38
71772;BME280;59606;52.138;5.424;2022-09-09T01:45:24;100829.13;;;14.66;88.25
71772;BME280;59606;52.138;5.424;2022-09-09T01:47:52;100830.91;;;14.66;88.06
71772;BME280;59606;52.138;5.424;2022-09-09T01:50:20;100835.53;;;14.62;88.56
71772;BME280;59606;52.138;5.424;2022-09-09T01:52:50;100830.38;;;14.60;88.27
71772;BME280;59606;52.138;5.424;2022-09-09T01:55:27;100827.88;;;14.59;88.33
71772;BME280;59606;52.138;5.424;2022-09-09T02:00:21;100831.78;;;14.53;88.29
71772;BME280;59606;52.138;5.424;2022-09-09T02:03:08;100828.31;;;14.53;88.64
71772;BME280;59606;52.138;5.424;2022-09-09T02:05:45;100817.94;;;14.51;88.46
71772;BME280;59606;52.138;5.424;2022-09-09T02:08:19;100817.41;;;14.46;88.85
71772;BME280;59606;52.138;5.424;2022-09-09T02:10:50;100820.13;;;14.45;88.51
71772;BME280;59606;52.138;5.424;2022-09-09T02:13:20;100825.47;;;14.43;88.54
71772;BME280;59606;52.138;5.424;2022-09-09T02:16:02;100814.25;;;14.41;88.99
71772;BME280;59606;52.138;5.424;2022-09-09T02:18:38;100811.84;;;14.38;88.78
71772;BME280;59606;52.138;5.424;2022-09-09T02:21:07;100813.75;;;14.36;88.44
71772;BME280;59606;52.138;5.424;2022-09-09T02:23:35;100813.84;;;14.34;88.80
71772;BME280;59606;52.138;5.424;2022-09-09T02:26:03;100811.97;;;14.36;88.96
71772;BME280;59606;52.138;5.424;2022-09-09T02:28:35;100804.22;;;14.35;88.95
71772;BME280;59606;52.138;5.424;2022-09-09T02:31:04;100805.16;;;14.34;88.47
71772;BME280;59606;52.138;5.424;2022-09-09T02:33:40;100804.44;;;14.32;88.78
71772;BME280;59606;52.138;5.424;2022-09-09T02:36:09;100808.00;;;14.31;88.88
71772;BME280;59606;52.138;5.424;2022-09-09T02:38:42;100803.59;;;14.31;88.83
71772;BME280;59606;52.138;5.424;2022-09-09T02:41:11;100808.94;;;14.30;88.46
71772;BME280;59606;52.138;5.424;2022-09-09T02:43:38;100803.81;;;14.28;88.75
71772;BME280;59606;52.138;5.424;2022-09-09T02:49:11;100809.28;;;14.25;88.69
71772;BME280;59606;52.138;5.424;2022-09-09T02:51:55;100808.44;;;14.25;88.85
71772;BME280;59606;52.138;5.424;2022-09-09T02:54:31;100809.38;;;14.24;88.68
71772;BME280;59606;52.138;5.424;2022-09-09T02:57:16;100804.47;;;14.19;88.72
71772;BME280;59606;52.138;5.424;2022-09-09T02:59:44;100803.00;;;14.15;88.74
71772;BME280;59606;52.138;5.424;2022-09-09T03:02:11;100798.00;;;14.12;88.63
71772;BME280;59606;52.138;5.424;2022-09-09T03:04:40;100801.44;;;14.12;88.62
71772;BME280;59606;52.138;5.424;2022-09-09T03:07:09;100799.03;;;14.09;89.28
71772;BME280;59606;52.138;5.424;2022-09-09T03:09:36;100798.22;;;14.09;89.21
71772;BME280;59606;52.138;5.424;2022-09-09T03:12:02;100802.84;;;14.05;88.99
71772;BME280;59606;52.138;5.424;2022-09-09T03:14:30;100797.81;;;14.02;88.98
71772;BME280;59606;52.138;5.424;2022-09-09T03:16:57;100790.03;;;14.01;88.83
71772;BME280;59606;52.138;5.424;2022-09-09T03:19:26;100797.19;;;13.99;89.11
71772;BME280;59606;52.138;5.424;2022-09-09T03:21:54;100805.97;;;13.98;88.98
71772;BME280;59606;52.138;5.424;2022-09-09T03:24:20;100802.72;;;13.94;88.89
71772;BME280;59606;52.138;5.424;2022-09-09T03:26:47;100802.00;;;13.92;89.25
71772;BME280;59606;52.138;5.424;2022-09-09T03:29:14;100805.47;;;13.93;88.99
71772;BME280;59606;52.138;5.424;2022-09-09T03:31:40;100797.69;;;13.91;89.29
71772;BME280;59606;52.138;5.424;2022-09-09T03:34:09;100790.78;;;13.90;89.33
71772;BME280;59606;52.138;5.424;2022-09-09T03:36:35;100793.63;;;13.87;89.38
71772;BME280;59606;52.138;5.424;2022-09-09T03:39:02;100800.66;;;13.86;89.42
71772;BME280;59606;52.138;5.424;2022-09-09T03:41:30;100799.81;;;13.86;89.35
71772;BME280;59606;52.138;5.424;2022-09-09T03:43:56;100794.66;;;13.84;89.43
71772;BME280;59606;52.138;5.424;2022-09-09T03:46:25;100801.69;;;13.84;89.20
71772;BME280;59606;52.138;5.424;2022-09-09T03:48:52;100800.09;;;13.81;89.27
71772;BME280;59606;52.138;5.424;2022-09-09T03:51:19;100803.59;;;13.82;89.83
71772;BME280;59606;52.138;5.424;2022-09-09T03:53:48;100794.25;;;13.78;89.73
71772;BME280;59606;52.138;5.424;2022-09-09T03:56:15;100792.50;;;13.78;89.95
71772;BME280;59606;52.138;5.424;2022-09-09T03:58:41;100798.84;;;13.74;89.43
71772;BME280;59606;52.138;5.424;2022-09-09T04:01:10;100791.97;;;13.73;89.54
71772;BME280;59606;52.138;5.424;2022-09-09T04:03:40;100791.97;;;13.73;89.83
71772;BME280;59606;52.138;5.424;2022-09-09T04:06:08;100785.97;;;13.71;89.59
71772;BME280;59606;52.138;5.424;2022-09-09T04:08:35;100786.19;;;13.68;89.75
71772;BME280;59606;52.138;5.424;2022-09-09T04:11:03;100787.13;;;13.67;89.88
71772;BME280;59606;52.138;5.424;2022-09-09T04:13:33;100789.75;;;13.67;89.89
71772;BME280;59606;52.138;5.424;2022-09-09T04:16:02;100787.34;;;13.64;90.21
71772;BME280;59606;52.138;5.424;2022-09-09T04:18:30;100791.94;;;13.60;90.21
71772;BME280;59606;52.138;5.424;2022-09-09T04:20:57;100790.16;;;13.61;90.34
71772;BME280;59606;52.138;5.424;2022-09-09T04:23:25;100792.91;;;13.59;90.43
71772;BME280;59606;52.138;5.424;2022-09-09T04:25:53;100779.06;;;13.57;90.10
71772;BME280;59606;52.138;5.424;2022-09-09T04:28:23;100775.75;;;13.55;90.27
71772;BME280;59606;52.138;5.424;2022-09-09T04:30:49;100779.91;;;13.58;90.09
71772;BME280;59606;52.138;5.424;2022-09-09T04:33:16;100777.41;;;13.56;90.11
71772;BME280;59606;52.138;5.424;2022-09-09T04:35:47;100781.59;;;13.59;90.60
71772;BME280;59606;52.138;5.424;2022-09-09T04:38:16;100789.25;;;13.62;90.61
71772;BME280;59606;52.138;5.424;2022-09-09T04:40:46;100785.69;;;13.63;90.90
71772;BME280;59606;52.138;5.424;2022-09-09T04:43:13;100787.13;;;13.67;90.75
71772;BME280;59606;52.138;5.424;2022-09-09T04:45:44;100779.06;;;13.70;91.32
71772;BME280;59606;52.138;5.424;2022-09-09T04:48:13;100775.41;;;13.73;91.09
71772;BME280;59606;52.138;5.424;2022-09-09T04:50:39;100766.59;;;13.74;91.21
71772;BME280;59606;52.138;5.424;2022-09-09T04:53:09;100772.59;;;13.76;90.92
71772;BME280;59606;52.138;5.424;2022-09-09T04:55:35;100760.41;;;13.75;91.28
71772;BME280;59606;52.138;5.424;2022-09-09T04:58:06;100762.31;;;13.73;91.25
71772;BME280;59606;52.138;5.424;2022-09-09T05:00:33;100759.78;;;13.71;91.27
71772;BME280;59606;52.138;5.424;2022-09-09T05:03:03;100768.59;;;13.70;91.29
71772;BME280;59606;52.138;5.424;2022-09-09T05:05:31;100771.44;;;13.67;91.27
71772;BME280;59606;52.138;5.424;2022-09-09T05:08:04;100770.72;;;13.65;91.46
71772;BME280;59606;52.138;5.424;2022-09-09T05:10:31;100774.25;;;13.64;91.54
71772;BME280;59606;52.138;5.424;2022-09-09T05:12:59;100777.00;;;13.62;91.37
71772;BME280;59606;52.138;5.424;2022-09-09T05:15:25;100771.75;;;13.62;91.25
71772;BME280;59606;52.138;5.424;2022-09-09T05:17:52;100770.81;;;13.63;91.53
71772;BME280;59606;52.138;5.424;2022-09-09T05:20:19;100778.66;;;13.63;91.90
71772;BME280;59606;52.138;5.424;2022-09-09T05:22:46;100764.72;;;13.63;91.76
71772;BME280;59606;52.138;5.424;2022-09-09T05:25:12;100765.56;;;13.63;91.90
71772;BME280;59606;52.138;5.424;2022-09-09T05:27:39;100759.50;;;13.63;91.94
71772;BME280;59606;52.138;5.424;2022-09-09T05:30:05;100759.50;;;13.63;91.67
71772;BME280;59606;52.138;5.424;2022-09-09T05:32:35;100757.72;;;13.63;91.49
71772;BME280;59606;52.138;5.424;2022-09-09T05:35:03;100755.94;;;13.64;92.13
71772;BME280;59606;52.138;5.424;2022-09-09T05:37:30;100749.88;;;13.63;92.04
71772;BME280;59606;52.138;5.424;2022-09-09T05:39:57;100755.84;;;13.65;91.78
71772;BME280;59606;52.138;5.424;2022-09-09T05:42:24;100751.44;;;13.66;92.20
71772;BME280;59606;52.138;5.424;2022-09-09T05:44:50;100766.19;;;13.67;91.98
71772;BME280;59606;52.138;5.424;2022-09-09T05:47:20;100753.22;;;13.65;92.00
71772;BME280;59606;52.138;5.424;2022-09-09T05:49:46;100758.25;;;13.68;92.21
71772;BME280;59606;52.138;5.424;2022-09-09T05:52:13;100759.09;;;13.69;92.50
71772;BME280;59606;52.138;5.424;2022-09-09T05:54:39;100759.78;;;13.71;92.17
71772;BME280;59606;52.138;5.424;2022-09-09T05:57:06;100750.06;;;13.73;92.27
71772;BME280;59606;52.138;5.424;2022-09-09T05:59:33;100752.47;;;13.76;92.57
71772;BME280;59606;52.138;5.424;2022-09-09T06:01:59;100763.44;;;13.81;92.44
71772;BME280;59606;52.138;5.424;2022-09-09T06:04:26;100757.16;;;13.84;92.71
71772;BME280;59606;52.138;5.424;2022-09-09T06:06:52;100775.06;;;13.90;92.56
71772;BME280;59606;52.138;5.424;2022-09-09T06:09:18;100777.47;;;13.93;92.77
71772;BME280;59606;52.138;5.424;2022-09-09T06:11:45;100772.03;;;13.96;92.51
71772;BME280;59606;52.138;5.424;2022-09-09T06:14:12;100770.78;;;14.02;92.82
71772;BME280;59606;52.138;5.424;2022-09-09T06:16:38;100776.41;;;14.08;92.95
71772;BME280;59606;52.138;5.424;2022-09-09T06:19:05;100763.94;;;14.12;92.91
71772;BME280;59606;52.138;5.424;2022-09-09T06:21:34;100764.34;;;14.19;92.90
71772;BME280;59606;52.138;5.424;2022-09-09T06:24:05;100763.88;;;14.25;93.19
71772;BME280;59606;52.138;5.424;2022-09-09T06:26:38;100761.78;;;14.30;93.00
71772;BME280;59606;52.138;5.424;2022-09-09T06:29:08;100768.38;;;14.35;93.18
71772;BME280;59606;52.138;5.424;2022-09-09T06:31:36;100761.13;;;14.39;93.25
71772;BME280;59606;52.138;5.424;2022-09-09T06:34:07;100753.13;;;14.41;93.14
71772;BME280;59606;52.138;5.424;2022-09-09T06:36:36;100758.91;;;14.46;92.83
71772;BME280;59606;52.138;5.424;2022-09-09T06:39:04;100753.00;;;14.55;93.31
71772;BME280;59606;52.138;5.424;2022-09-09T06:41:35;100748.44;;;14.70;93.40
71772;BME280;59606;52.138;5.424;2022-09-09T06:44:01;100747.28;;;14.85;93.60
71772;BME280;59606;52.138;5.424;2022-09-09T06:46:30;100749.75;;;14.99;93.28
71772;BME280;59606;52.138;5.424;2022-09-09T06:48:59;100755.13;;;15.09;92.73
71772;BME280;59606;52.138;5.424;2022-09-09T06:51:37;100755.50;;;15.16;92.42
71772;BME280;59606;52.138;5.424;2022-09-09T06:54:11;100752.63;;;15.19;92.29
71772;BME280;59606;52.138;5.424;2022-09-09T06:56:39;100756.81;;;15.21;91.91
71772;BME280;59606;52.138;5.424;2022-09-09T06:59:08;100754.78;;;15.25;92.12
71772;BME280;59606;52.138;5.424;2022-09-09T07:01:37;100745.50;;;15.32;92.00
71772;BME280;59606;52.138;5.424;2022-09-09T07:04:04;100752.31;;;15.35;91.56
71772;BME280;59606;52.138;5.424;2022-09-09T07:06:35;100747.91;;;15.35;91.17
71772;BME280;59606;52.138;5.424;2022-09-09T07:09:04;100751.03;;;15.40;91.49
71772;BME280;59606;52.138;5.424;2022-09-09T07:11:37;100759.97;;;15.49;91.64
71772;BME280;59606;52.138;5.424;2022-09-09T07:14:04;100750.41;;;15.59;91.37
71772;BME280;59606;52.138;5.424;2022-09-09T07:16:30;100754.16;;;15.68;91.11
71772;BME280;59606;52.138;5.424;2022-09-09T07:18:59;100759.78;;;15.74;90.66
71772;BME280;59606;52.138;5.424;2022-09-09T07:21:28;100756.09;;;15.77;90.36
71772;BME280;59606;52.138;5.424;2022-09-09T07:23:55;100751.91;;;15.74;89.99
71772;BME280;59606;52.138;5.424;2022-09-09T07:26:25;100746.88;;;15.71;89.76
71772;BME280;59606;52.138;5.424;2022-09-09T07:28:52;100745.22;;;15.70;89.45
71772;BME280;59606;52.138;5.424;2022-09-09T07:31:22;100756.69;;;15.69;89.68
71772;BME280;59606;52.138;5.424;2022-09-09T07:33:49;100759.19;;;15.71;90.00
71772;BME280;59606;52.138;5.424;2022-09-09T07:36:20;100758.22;;;15.72;89.71
71772;BME280;59606;52.138;5.424;2022-09-09T07:38:57;100761.81;;;15.71;89.54
71772;BME280;59606;52.138;5.424;2022-09-09T07:41:47;100765.03;;;15.74;89.52
71772;BME280;59606;52.138;5.424;2022-09-09T07:44:21;100761.31;;;15.88;89.04
71772;BME280;59606;52.138;5.424;2022-09-09T07:46:48;100759.66;;;15.98;87.84
71772;BME280;59606;52.138;5.424;2022-09-09T07:49:15;100755.47;;;16.07;87.71
71772;BME280;59606;52.138;5.424;2022-09-09T07:51:44;100748.88;;;16.24;87.41
71772;BME280;59606;52.138;5.424;2022-09-09T07:54:16;100759.69;;;16.42;86.67
71772;BME280;59606;52.138;5.424;2022-09-09T07:56:43;100752.63;;;16.54;86.04
71772;BME280;59606;52.138;5.424;2022-09-09T07:59:10;100753.91;;;16.59;85.30
71772;BME280;59606;52.138;5.424;2022-09-09T08:01:42;100757.00;;;16.64;85.28
71772;BME280;59606;52.138;5.424;2022-09-09T08:04:11;100757.00;;;16.64;85.24
71772;BME280;59606;52.138;5.424;2022-09-09T08:06:47;100755.19;;;16.65;85.13
71772;BME280;59606;52.138;5.424;2022-09-09T08:09:14;100755.91;;;16.67;84.19
71772;BME280;59606;52.138;5.424;2022-09-09T08:11:42;100769.66;;;16.59;84.51
71772;BME280;59606;52.138;5.424;2022-09-09T08:14:10;100763.81;;;16.56;84.38
71772;BME280;59606;52.138;5.424;2022-09-09T08:16:40;100769.91;;;16.56;84.57
71772;BME280;59606;52.138;5.424;2022-09-09T08:19:07;100773.03;;;16.61;84.67
71772;BME280;59606;52.138;5.424;2022-09-09T08:21:36;100766.34;;;16.57;84.48
71772;BME280;59606;52.138;5.424;2022-09-09T08:24:03;100768.75;;;16.49;83.89
71772;BME280;59606;52.138;5.424;2022-09-09T08:26:41;100773.41;;;16.45;84.05
71772;BME280;59606;52.138;5.424;2022-09-09T08:29:09;100770.94;;;16.44;83.74
71772;BME280;59606;52.138;5.424;2022-09-09T08:31:44;100772.84;;;16.42;83.69
71772;BME280;59606;52.138;5.424;2022-09-09T08:34:11;100775.72;;;16.39;83.86
71772;BME280;59606;52.138;5.424;2022-09-09T08:36:43;100778.47;;;16.37;84.15
71772;BME280;59606;52.138;5.424;2022-09-09T08:39:13;100784.94;;;16.33;83.84
71772;BME280;59606;52.138;5.424;2022-09-09T08:49:56;100793.78;;;16.43;83.68
71772;BME280;59606;52.138;5.424;2022-09-09T08:52:30;100792.66;;;16.46;84.19
71772;BME280;59606;52.138;5.424;2022-09-09T08:55:22;100792.41;;;16.49;83.44
71772;BME280;59606;52.138;5.424;2022-09-09T08:57:53;100787.88;;;16.51;83.01
71772;BME280;59606;52.138;5.424;2022-09-09T09:00:20;100796.13;;;16.58;83.40
71772;BME280;59606;52.138;5.424;2022-09-09T09:05:35;100798.00;;;16.67;82.66
71772;BME280;59606;52.138;5.424;2022-09-09T09:10:43;100792.84;;;16.77;83.05
71772;BME280;59606;52.138;5.424;2022-09-09T09:13:26;100799.41;;;16.82;82.06
71772;BME280;59606;52.138;5.424;2022-09-09T09:16:12;100802.88;;;16.83;81.85
71772;BME280;59606;52.138;5.424;2022-09-09T09:18:42;100796.09;;;16.80;81.81
71772;BME280;59606;52.138;5.424;2022-09-09T09:21:20;100797.47;;;16.73;81.52
71772;BME280;59606;52.138;5.424;2022-09-09T09:24:00;100792.50;;;16.70;81.90
71772;BME280;59606;52.138;5.424;2022-09-09T09:26:32;100805.19;;;16.65;81.80
71772;BME280;59606;52.138;5.424;2022-09-09T09:29:03;100797.44;;;16.63;81.35
71772;BME280;59606;52.138;5.424;2022-09-09T09:31:36;100798.00;;;16.67;82.17
71772;BME280;59606;52.138;5.424;2022-09-09T09:34:02;100805.66;;;16.70;81.56
71772;BME280;59606;52.138;5.424;2022-09-09T09:36:40;100804.69;;;16.71;81.67
71772;BME280;59606;52.138;5.424;2022-09-09T09:39:08;100801.81;;;16.74;81.94
71772;BME280;59606;52.138;5.424;2022-09-09T09:41:56;100800.22;;;16.83;81.27
71772;BME280;59606;52.138;5.424;2022-09-09T09:46:51;100802.50;;;16.87;81.04
71772;BME280;59606;52.138;5.424;2022-09-09T09:49:17;100803.19;;;16.89;81.34
71772;BME280;59606;52.138;5.424;2022-09-09T09:51:44;100803.94;;;16.91;81.24
71772;BME280;59606;52.138;5.424;2022-09-09T09:56:41;100799.00;;;16.98;80.17
71772;BME280;59606;52.138;5.424;2022-09-09T10:02:23;100800.34;;;17.13;80.29
71772;BME280;59606;52.138;5.424;2022-09-09T10:07:41;100791.75;;;17.11;79.92
71772;BME280;59606;52.138;5.424;2022-09-09T10:10:15;100787.56;;;17.09;79.95
71772;BME280;59606;52.138;5.424;2022-09-09T10:13:07;100798.69;;;17.12;80.21
71772;BME280;59606;52.138;5.424;2022-09-09T10:18:44;100795.78;;;17.15;80.06
71772;BME280;59606;52.138;5.424;2022-09-09T10:22:11;100788.28;;;17.11;79.94
71772;BME280;59606;52.138;5.424;2022-09-09T10:24:43;100791.28;;;17.06;79.77
71772;BME280;59606;52.138;5.424;2022-09-09T10:27:22;100795.59;;;17.07;80.41
71772;BME280;59606;52.138;5.424;2022-09-09T10:30:12;100795.59;;;17.07;79.95
71772;BME280;59606;52.138;5.424;2022-09-09T10:32:50;100800.72;;;17.09;80.04
71772;BME280;59606;52.138;5.424;2022-09-09T10:35:44;100805.88;;;17.10;80.28
71772;BME280;59606;52.138;5.424;2022-09-09T10:40:42;100804.19;;;17.09;83.07
71772;BME280;59606;52.138;5.424;2022-09-09T10:49:09;100811.19;;;16.99;83.77
71772;BME280;59606;52.138;5.424;2022-09-09T10:55:03;100812.25;;;16.96;84.98
71772;BME280;59606;52.138;5.424;2022-09-09T10:57:46;100807.84;;;16.97;85.41
71772;BME280;59606;52.138;5.424;2022-09-09T11:01:24;100804.84;;;17.02;85.86
71772;BME280;59606;52.138;5.424;2022-09-09T11:03:28;100801.44;;;17.11;86.32
71772;BME280;59606;52.138;5.424;2022-09-09T11:06:06;100797.34;;;17.18;85.66
71772;BME280;59606;52.138;5.424;2022-09-09T11:08:39;100799.72;;;17.42;86.32
71772;BME280;59606;52.138;5.424;2022-09-09T11:11:29;100797.09;;;17.73;86.08
71772;BME280;59606;52.138;5.424;2022-09-09T11:14:21;100783.34;;;17.90;84.29
71772;BME280;59606;52.138;5.424;2022-09-09T11:16:54;100789.06;;;17.95;84.08
71772;BME280;59606;52.138;5.424;2022-09-09T11:19:38;100781.88;;;18.07;82.95
71772;BME280;59606;52.138;5.424;2022-09-09T11:22:14;100780.81;;;18.19;82.08
71772;BME280;59606;52.138;5.424;2022-09-09T11:24:58;100777.91;;;18.22;82.00
71772;BME280;59606;52.138;5.424;2022-09-09T11:27:38;100776.09;;;18.23;81.26
71772;BME280;59606;52.138;5.424;2022-09-09T11:38:46;100774.03;;;17.86;81.07
71772;BME280;59606;52.138;5.424;2022-09-09T11:41:14;100771.97;;;17.89;80.44
71772;BME280;59606;52.138;5.424;2022-09-09T11:43:52;100772.09;;;17.88;80.65
71772;BME280;59606;52.138;5.424;2022-09-09T11:46:34;100772.50;;;17.83;80.79
71772;BME280;59606;52.138;5.424;2022-09-09T11:49:04;100775.03;;;17.95;80.51
71772;BME280;59606;52.138;5.424;2022-09-09T11:51:33;100769.81;;;18.04;80.42
71772;BME280;59606;52.138;5.424;2022-09-09T11:56:32;100781.34;;;18.13;80.26
71772;BME280;59606;52.138;5.424;2022-09-09T11:59:01;100772.75;;;18.11;80.49
71772;BME280;59606;52.138;5.424;2022-09-09T12:06:51;100767.03;;;18.06;81.98
71772;BME280;59606;52.138;5.424;2022-09-09T12:11:49;100776.72;;;17.96;83.08
71772;BME280;59606;52.138;5.424;2022-09-09T12:14:37;100775.88;;;17.95;82.43
71772;BME280;59606;52.138;5.424;2022-09-09T12:17:31;100770.97;;;17.90;82.35
71772;BME280;59606;52.138;5.424;2022-09-09T12:20:27;100775.00;;;17.85;82.37
71772;BME280;59606;52.138;5.424;2022-09-09T12:23:09;100777.81;;;17.72;82.29
71772;BME280;59606;52.138;5.424;2022-09-09T12:28:56;100777.16;;;17.49;83.95
71772;BME280;59606;52.138;5.424;2022-09-09T12:31:29;100780.56;;;17.40;85.19
71772;BME280;59606;52.138;5.424;2022-09-09T12:37:10;100769.63;;;17.65;85.77
71772;BME280;59606;52.138;5.424;2022-09-09T12:39:55;100773.13;;;17.76;85.26
71772;BME280;59606;52.138;5.424;2022-09-09T12:42:22;100772.50;;;17.83;84.84
71772;BME280;59606;52.138;5.424;2022-09-09T12:47:21;100775.38;;;18.11;84.61
71772;BME280;59606;52.138;5.424;2022-09-09T12:49:55;100771.91;;;18.20;83.65
71772;BME280;59606;52.138;5.424;2022-09-09T12:52:29;100761.09;;;18.23;82.72
71772;BME280;59606;52.138;5.424;2022-09-09T12:54:58;100760.25;;;18.13;81.99
71772;BME280;59606;52.138;5.424;2022-09-09T12:57:32;100763.97;;;18.10;82.18
71772;BME280;59606;52.138;5.424;2022-09-09T13:00:17;100756.06;;;18.10;82.54
71772;BME280;59606;52.138;5.424;2022-09-09T13:02:56;100757.78;;;18.21;83.13
71772;BME280;59606;52.138;5.424;2022-09-09T13:05:26;100759.16;;;18.25;81.74
71772;BME280;59606;52.138;5.424;2022-09-09T13:08:08;100758.06;;;18.37;81.65
71772;BME280;59606;52.138;5.424;2022-09-09T13:11:06;100762.69;;;18.55;80.74
71772;BME280;59606;52.138;5.424;2022-09-09T13:13:38;100766.88;;;18.77;80.57
71772;BME280;59606;52.138;5.424;2022-09-09T13:16:16;100757.69;;;19.00;79.89
71772;BME280;59606;52.138;5.424;2022-09-09T13:18:44;100756.00;;;19.28;78.43
71772;BME280;59606;52.138;5.424;2022-09-09T13:21:11;100762.47;;;19.44;78.19
71772;BME280;59606;52.138;5.424;2022-09-09T13:23:38;100758.56;;;19.48;76.67
71772;BME280;59606;52.138;5.424;2022-09-09T13:26:25;100761.00;;;19.31;76.16
71772;BME280;59606;52.138;5.424;2022-09-09T13:28:53;100754.34;;;19.18;76.70
71772;BME280;59606;52.138;5.424;2022-09-09T13:31:28;100760.22;;;19.12;77.53
71772;BME280;59606;52.138;5.424;2022-09-09T13:33:55;100751.56;;;19.10;76.41
71772;BME280;59606;52.138;5.424;2022-09-09T13:36:30;100750.47;;;19.02;77.03
71772;BME280;59606;52.138;5.424;2022-09-09T13:38:58;100756.16;;;18.98;77.53
71772;BME280;59606;52.138;5.424;2022-09-09T13:41:42;100757.03;;;18.89;77.09
71772;BME280;59606;52.138;5.424;2022-09-09T13:44:26;100745.50;;;18.80;78.02
71772;BME280;59606;52.138;5.424;2022-09-09T13:47:04;100749.50;;;18.74;78.31
71772;BME280;59606;52.138;5.424;2022-09-09T13:49:36;100746.47;;;18.79;78.49
71772;BME280;59606;52.138;5.424;2022-09-09T13:52:11;100747.03;;;18.82;77.96
71772;BME280;59606;52.138;5.424;2022-09-09T13:54:40;100750.91;;;18.88;78.22
71772;BME280;59606;52.138;5.424;2022-09-09T13:57:26;100752.44;;;18.91;77.74
71772;BME280;59606;52.138;5.424;2022-09-09T13:59:54;100753.69;;;18.87;77.38
71772;BME280;59606;52.138;5.424;2022-09-09T14:02:32;100754.50;;;18.77;77.21
71772;BME280;59606;52.138;5.424;2022-09-09T14:04:59;100750.06;;;18.68;77.80
71772;BME280;59606;52.138;5.424;2022-09-09T14:07:26;100747.13;;;18.61;77.63
71772;BME280;59606;52.138;5.424;2022-09-09T14:09:53;100751.28;;;18.64;77.90
71772;BME280;59606;52.138;5.424;2022-09-09T14:12:19;100751.44;;;18.63;78.29
71772;BME280;59606;52.138;5.424;2022-09-09T14:14:46;100743.09;;;18.67;78.23
71772;BME280;59606;52.138;5.424;2022-09-09T14:17:13;100752.81;;;18.67;78.05
71772;BME280;59606;52.138;5.424;2022-09-09T14:19:40;100751.84;;;18.68;78.43
71772;BME280;59606;52.138;5.424;2022-09-09T14:22:06;100744.22;;;18.74;78.20
71772;BME280;59606;52.138;5.424;2022-09-09T14:24:33;100746.75;;;18.76;78.71
71772;BME280;59606;52.138;5.424;2022-09-09T14:27:00;100743.41;;;18.74;78.90
71772;BME280;59606;52.138;5.424;2022-09-09T14:29:26;100727.81;;;18.71;79.84
71772;BME280;59606;52.138;5.424;2022-09-09T14:31:53;100734.34;;;18.67;79.60
71772;BME280;59606;52.138;5.424;2022-09-09T14:34:19;100740.72;;;18.64;79.44
71772;BME280;59606;52.138;5.424;2022-09-09T14:36:45;100735.59;;;18.53;80.70
71772;BME280;59606;52.138;5.424;2022-09-09T14:39:13;100736.84;;;18.49;80.94
71772;BME280;59606;52.138;5.424;2022-09-09T14:41:40;100742.53;;;18.44;81.39
71772;BME280;59606;52.138;5.424;2022-09-09T14:44:06;100741.00;;;18.42;82.62
71772;BME280;59606;52.138;5.424;2022-09-09T14:46:35;100748.09;;;18.41;83.10
71772;BME280;59606;52.138;5.424;2022-09-09T14:49:02;100742.66;;;18.33;83.45
71772;BME280;59606;52.138;5.424;2022-09-09T14:51:28;100738.75;;;18.27;84.66
71772;BME280;59606;52.138;5.424;2022-09-09T14:53:57;100735.72;;;18.22;84.37